Time;durP1;ratioP1;P1;durP2;ratioP2;P2;SDS_P1;SDS_P2;PMS_P1;PMS_P2;Temp;Humidity;BMP_temperature;BMP_pressure;BME280_temperature;BME280_humidity;BME280_pressure;Samples;Min_cycle;Max_cycle;Signal;HPM_P1;HPM_P2
2023/09/28 00:02:58;;;;;;;21.15;11.13;;;21.90;71.90;;;;;;5049117;28;20051;-52
2023/09/28 00:05:24;;;;;;;21.58;11.45;;;21.90;72.60;;;;;;5049154;28;20033;-52
2023/09/28 00:07:50;;;;;;;17.23;11.48;;;21.90;71.70;;;;;;5051112;28;20391;-51
2023/09/28 00:10:17;;;;;;;18.00;11.32;;;21.90;72.40;;;;;;5048741;28;20412;-52
2023/09/28 00:12:49;;;;;;;18.38;10.38;;;21.90;71.80;;;;;;5044284;28;20021;-53
2023/09/28 00:15:16;;;;;;;19.20;10.98;;;21.90;71.70;;;;;;5043785;28;20092;-49
2023/09/28 00:17:42;;;;;;;19.92;10.35;;;21.90;71.70;;;;;;5051138;28;20025;-55
2023/09/28 00:20:17;;;;;;;20.52;10.90;;;21.90;71.70;;;;;;5049974;28;20105;-50
2023/09/28 00:22:47;;;;;;;20.40;11.13;;;21.90;71.60;;;;;;5045774;28;20032;-50
2023/09/28 00:25:13;;;;;;;19.13;10.70;;;21.90;71.50;;;;;;5030609;28;20489;-49
2023/09/28 00:27:43;;;;;;;16.52;9.60;;;21.80;71.40;;;;;;5039210;28;20691;-49
2023/09/28 00:30:12;;;;;;;16.73;10.55;;;21.80;71.30;;;;;;5048610;28;20025;-51
2023/09/28 00:32:38;;;;;;;17.85;10.05;;;21.90;71.30;;;;;;5045139;28;20017;-52
2023/09/28 00:35:06;;;;;;;16.05;10.50;;;21.90;71.30;;;;;;5048569;28;20032;-50
2023/09/28 00:37:32;;;;;;;16.45;10.07;;;21.80;71.10;;;;;;5042143;28;20385;-50
2023/09/28 00:39:58;;;;;;;17.35;10.40;;;21.80;71.00;;;;;;5048665;28;20048;-55
2023/09/28 00:42:28;;;;;;;18.33;9.95;;;21.80;71.00;;;;;;5044430;28;20025;-56
2023/09/28 00:44:53;;;;;;;15.73;10.23;;;21.80;70.90;;;;;;5049624;28;20040;-54
2023/09/28 00:47:19;;;;;;;15.38;10.20;;;21.80;70.90;;;;;;5064227;22;20045;-57
2023/09/28 00:49:46;;;;;;;14.80;10.05;;;21.80;70.80;;;;;;5050592;28;20055;-56
2023/09/28 00:52:16;;;;;;;16.67;9.73;;;21.80;70.80;;;;;;5048190;28;20025;-53
2023/09/28 00:54:46;;;;;;;17.67;10.57;;;21.80;70.70;;;;;;5040544;28;20036;-54
2023/09/28 00:57:13;;;;;;;15.65;10.27;;;21.80;70.60;;;;;;5050528;28;20175;-54
2023/09/28 00:59:40;;;;;;;16.20;10.35;;;21.80;70.60;;;;;;5027471;28;20029;-56
2023/09/28 01:02:08;;;;;;;17.95;9.85;;;21.80;70.50;;;;;;5043695;28;20029;-58
2023/09/28 01:04:35;;;;;;;16.50;10.15;;;21.80;70.30;;;;;;5052232;28;20543;-54
2023/09/28 01:07:04;;;;;;;21.17;9.95;;;21.70;70.30;;;;;;5049582;28;20031;-59
2023/09/28 01:09:30;;;;;;;16.55;9.55;;;21.70;70.20;;;;;;5031611;28;20056;-56
2023/09/28 01:11:57;;;;;;;18.23;10.20;;;21.80;70.30;;;;;;5015446;28;20021;-55
2023/09/28 01:14:23;;;;;;;16.65;9.98;;;21.70;69.70;;;;;;5042640;28;20033;-56
2023/09/28 01:16:48;;;;;;;16.58;9.52;;;21.70;70.10;;;;;;5028408;28;20097;-58
2023/09/28 01:19:14;;;;;;;19.90;9.80;;;21.70;70.00;;;;;;5035452;28;20108;-52
2023/09/28 01:21:40;;;;;;;16.30;9.98;;;21.70;69.80;;;;;;5033675;28;20033;-59
2023/09/28 01:24:06;;;;;;;15.70;10.05;;;21.70;69.70;;;;;;5030697;28;20037;-56
2023/09/28 01:26:34;;;;;;;16.27;10.50;;;21.70;69.60;;;;;;5053480;28;20108;-58
2023/09/28 01:29:00;;;;;;;15.73;10.18;;;21.70;70.20;;;;;;5050095;28;20101;-55
2023/09/28 01:31:27;;;;;;;15.23;9.90;;;21.70;69.40;;;;;;5032634;28;20023;-56
2023/09/28 01:33:54;;;;;;;17.08;9.88;;;21.70;69.20;;;;;;5031174;28;20033;-55
2023/09/28 01:36:20;;;;;;;17.60;9.75;;;21.70;69.00;;;;;;5052759;28;20530;-58
2023/09/28 01:38:54;;;;;;;15.73;9.65;;;21.60;69.40;;;;;;5053550;28;20033;-55
2023/09/28 01:41:20;;;;;;;16.45;8.77;;;21.70;68.70;;;;;;5033412;28;20404;-57
2023/09/28 01:43:46;;;;;;;15.30;9.15;;;21.60;69.20;;;;;;5034214;28;20049;-59
2023/09/28 01:46:12;;;;;;;20.58;8.70;;;21.60;68.10;;;;;;5052261;28;20085;-58
2023/09/28 01:48:38;;;;;;;17.95;9.30;;;21.60;67.90;;;;;;5023705;28;20064;-57
2023/09/28 01:51:04;;;;;;;17.40;9.27;;;21.60;67.80;;;;;;5050635;28;20488;-55
2023/09/28 01:53:30;;;;;;;18.15;9.63;;;21.60;67.50;;;;;;5032684;28;20104;-54
2023/09/28 01:55:59;;;;;;;13.85;9.15;;;21.60;67.20;;;;;;5051243;28;20024;-51
2023/09/28 01:58:25;;;;;;;16.00;9.27;;;21.50;67.20;;;;;;5035807;28;20032;-54
2023/09/28 02:00:51;;;;;;;16.27;8.55;;;21.50;67.30;;;;;;5032940;28;20025;-56
2023/09/28 02:03:17;;;;;;;13.30;8.52;;;21.50;67.30;;;;;;5030520;28;20378;-55
2023/09/28 02:05:43;;;;;;;16.67;9.38;;;21.50;67.20;;;;;;5048270;28;20112;-57
2023/09/28 02:08:09;;;;;;;16.52;8.75;;;21.50;66.60;;;;;;5035081;28;20032;-59
2023/09/28 02:10:35;;;;;;;18.55;8.82;;;21.50;66.60;;;;;;5050882;28;20058;-59
2023/09/28 02:13:00;;;;;;;15.00;9.10;;;21.50;66.40;;;;;;5043992;28;20029;-59
2023/09/28 02:15:27;;;;;;;23.83;11.13;;;21.50;66.60;;;;;;5050998;28;20029;-58
2023/09/28 02:17:52;;;;;;;22.60;11.38;;;21.50;66.40;;;;;;5023142;28;20040;-59
2023/09/28 02:20:22;;;;;;;16.60;10.98;;;21.50;66.40;;;;;;5050694;28;20029;-59
2023/09/28 02:22:52;;;;;;;19.75;10.10;;;21.50;66.40;;;;;;5044149;28;20022;-59
2023/09/28 02:25:22;;;;;;;16.70;9.85;;;21.50;66.50;;;;;;5051410;28;20052;-59
2023/09/28 02:27:49;;;;;;;16.85;9.40;;;21.50;66.60;;;;;;5052702;28;20036;-59
2023/09/28 02:30:19;;;;;;;29.15;9.73;;;21.50;66.00;;;;;;5029639;28;20108;-59
2023/09/28 02:32:55;;;;;;;14.20;8.98;;;21.40;66.00;;;;;;5048767;28;20025;-59
2023/09/28 02:35:21;;;;;;;15.07;8.43;;;21.40;66.30;;;;;;5032588;28;20400;-59
2023/09/28 02:37:48;;;;;;;15.00;8.93;;;21.40;65.60;;;;;;5021266;28;20036;-57
2023/09/28 02:40:15;;;;;;;15.77;8.80;;;21.40;65.90;;;;;;5049393;28;20025;-54
2023/09/28 02:42:42;;;;;;;18.75;9.13;;;21.40;65.60;;;;;;5045294;28;20112;-56
2023/09/28 02:45:11;;;;;;;17.52;8.68;;;21.40;65.70;;;;;;5024327;28;20032;-57
2023/09/28 02:47:48;;;;;;;13.50;8.23;;;21.40;65.50;;;;;;5050447;28;20033;-55
2023/09/28 02:50:16;;;;;;;15.93;8.38;;;21.40;65.50;;;;;;5015038;28;20021;-58
2023/09/28 02:52:46;;;;;;;14.63;8.68;;;21.40;65.40;;;;;;5046105;28;20021;-59
2023/09/28 02:55:12;;;;;;;16.85;8.82;;;21.40;65.30;;;;;;5050944;28;20418;-58
2023/09/28 02:57:40;;;;;;;15.80;8.70;;;21.40;65.30;;;;;;5051911;28;20037;-57
2023/09/28 03:00:40;;;;;;;13.90;8.52;;;21.40;65.00;;;;;;5051139;28;20025;-58
2023/09/28 03:03:09;;;;;;;19.38;8.75;;;21.40;65.50;;;;;;5040884;28;20041;-57
2023/09/28 03:05:38;;;;;;;14.10;8.43;;;21.30;64.80;;;;;;5042156;28;20028;-54
2023/09/28 03:08:09;;;;;;;15.83;9.23;;;21.40;64.80;;;;;;5049648;28;20029;-59
2023/09/28 03:10:41;;;;;;;14.65;8.25;;;21.30;64.80;;;;;;5050150;28;20086;-59
2023/09/28 03:13:08;;;;;;;17.85;8.50;;;21.40;64.90;;;;;;5033812;28;20482;-58
2023/09/28 03:15:35;;;;;;;16.17;8.48;;;21.30;64.80;;;;;;5032174;28;20032;-53
2023/09/28 03:18:02;;;;;;;11.88;8.15;;;21.40;64.80;;;;;;5049559;28;20045;-56
2023/09/28 03:20:30;;;;;;;13.80;8.07;;;21.30;64.70;;;;;;5045337;28;20082;-59
2023/09/28 03:22:56;;;;;;;15.43;8.85;;;21.30;64.60;;;;;;5044458;28;20033;-59
2023/09/28 03:25:22;;;;;;;16.02;8.13;;;21.30;64.60;;;;;;5050290;28;20033;-59
2023/09/28 03:27:51;;;;;;;16.05;8.75;;;21.30;64.50;;;;;;5051280;28;20025;-59
2023/09/28 03:30:18;;;;;;;15.80;8.63;;;21.30;64.40;;;;;;5051509;28;20029;-59
2023/09/28 03:32:46;;;;;;;15.60;8.13;;;21.30;64.20;;;;;;5024650;28;20373;-59
2023/09/28 03:35:13;;;;;;;16.45;8.13;;;21.30;64.30;;;;;;5041516;28;20025;-57
2023/09/28 03:37:40;;;;;;;14.25;8.55;;;21.30;64.20;;;;;;5050772;28;20060;-58
2023/09/28 03:40:10;;;;;;;19.45;8.68;;;21.20;64.10;;;;;;5049545;28;20496;-59
2023/09/28 03:42:44;;;;;;;15.10;8.13;;;21.30;64.30;;;;;;5050845;28;20555;-59
2023/09/28 03:45:11;;;;;;;19.95;9.15;;;21.20;64.20;;;;;;5037513;28;20029;-57
2023/09/28 03:47:38;;;;;;;18.95;9.20;;;21.20;64.20;;;;;;5046760;28;20033;-54
2023/09/28 03:50:11;;;;;;;16.10;8.27;;;21.20;64.10;;;;;;5048880;28;20456;-58
2023/09/28 03:52:38;;;;;;;17.85;8.65;;;21.20;63.90;;;;;;5051243;28;20095;-58
2023/09/28 03:55:14;;;;;;;15.93;9.07;;;21.20;63.90;;;;;;5032466;28;20021;-58
2023/09/28 03:57:42;;;;;;;15.88;8.52;;;21.20;64.00;;;;;;5030343;28;20053;-56
2023/09/28 04:00:18;;;;;;;16.85;8.65;;;21.10;63.90;;;;;;5051341;28;20104;-58
2023/09/28 04:02:45;;;;;;;15.20;9.13;;;21.20;63.90;;;;;;5046138;28;20611;-58
2023/09/28 04:05:11;;;;;;;16.88;8.95;;;21.10;63.80;;;;;;5049853;28;20025;-57
2023/09/28 04:07:38;;;;;;;19.55;9.07;;;21.20;63.90;;;;;;5043788;28;20386;-56
2023/09/28 04:10:05;;;;;;;13.40;8.35;;;21.10;63.80;;;;;;5049684;28;20055;-57
2023/09/28 04:12:32;;;;;;;15.90;8.38;;;21.10;63.70;;;;;;5016913;28;20492;-58
2023/09/28 04:14:58;;;;;;;20.63;9.10;;;21.10;63.80;;;;;;5049013;28;20139;-56
2023/09/28 04:17:34;;;;;;;15.63;9.00;;;21.10;63.70;;;;;;5028292;28;20112;-58
2023/09/28 04:20:06;;;;;;;16.08;9.70;;;21.10;63.80;;;;;;5049851;28;20028;-58
2023/09/28 04:22:32;;;;;;;23.92;10.73;;;21.10;63.90;;;;;;5050522;28;20446;-57
2023/09/28 04:24:58;;;;;;;20.67;10.43;;;21.20;64.20;;;;;;5047701;28;20032;-58
2023/09/28 04:27:24;;;;;;;26.15;10.75;;;21.20;64.00;;;;;;5048977;28;20408;-55
2023/09/28 04:29:52;;;;;;;20.10;11.55;;;21.10;63.90;;;;;;5053278;28;20012;-57
2023/09/28 04:32:21;;;;;;;22.42;12.02;;;21.10;63.70;;;;;;5033367;28;20029;-57
2023/09/28 04:34:46;;;;;;;23.00;12.52;;;21.10;63.60;;;;;;5050014;28;20158;-59
2023/09/28 04:37:12;;;;;;;20.48;11.82;;;21.10;63.50;;;;;;5046238;28;20432;-58
2023/09/28 04:39:38;;;;;;;22.05;11.43;;;21.10;63.50;;;;;;5053721;28;20492;-58
2023/09/28 04:42:04;;;;;;;20.40;12.98;;;21.00;63.50;;;;;;5052540;28;20061;-59
2023/09/28 04:44:30;;;;;;;20.35;13.00;;;21.00;63.50;;;;;;5052392;28;20024;-57
2023/09/28 04:46:56;;;;;;;21.95;12.52;;;21.00;63.50;;;;;;5046296;28;20492;-57
2023/09/28 04:49:22;;;;;;;19.00;10.57;;;21.00;63.50;;;;;;5046641;28;20027;-57
2023/09/28 04:51:48;;;;;;;18.15;10.13;;;21.00;63.50;;;;;;5046743;28;20021;-59
2023/09/28 04:54:14;;;;;;;18.02;9.10;;;21.00;63.50;;;;;;5053436;28;20419;-59
2023/09/28 04:56:40;;;;;;;17.33;10.05;;;21.00;63.40;;;;;;5049299;28;20033;-56
2023/09/28 04:59:08;;;;;;;28.23;9.85;;;21.00;64.00;;;;;;5050903;28;20029;-56
2023/09/28 05:01:34;;;;;;;17.30;9.25;;;20.90;63.30;;;;;;5054107;28;20021;-56
2023/09/28 05:04:00;;;;;;;16.75;9.65;;;21.00;63.40;;;;;;5054037;28;20044;-56
2023/09/28 05:06:27;;;;;;;17.23;9.35;;;21.00;63.40;;;;;;5052059;28;20025;-56
2023/09/28 05:08:53;;;;;;;21.10;9.18;;;20.90;63.30;;;;;;5053334;28;20024;-56
2023/09/28 05:11:19;;;;;;;14.95;9.02;;;21.00;63.40;;;;;;5051003;28;20017;-56
2023/09/28 05:13:44;;;;;;;15.68;8.55;;;21.00;63.30;;;;;;5052624;28;20021;-56
2023/09/28 05:16:10;;;;;;;16.58;9.25;;;21.00;63.30;;;;;;5043806;28;20021;-56
2023/09/28 05:18:36;;;;;;;18.65;9.60;;;21.00;63.40;;;;;;5052029;28;20035;-55
2023/09/28 05:21:02;;;;;;;16.33;10.05;;;21.00;63.40;;;;;;5043979;28;20048;-57
2023/09/28 05:23:28;;;;;;;18.90;9.10;;;21.00;63.40;;;;;;5046276;28;20113;-59
2023/09/28 05:25:54;;;;;;;18.58;9.65;;;21.00;63.40;;;;;;5044545;28;20499;-59
2023/09/28 05:28:20;;;;;;;20.27;10.35;;;21.00;63.40;;;;;;5047739;28;20025;-59
2023/09/28 05:30:46;;;;;;;20.38;10.27;;;21.00;63.30;;;;;;5052506;28;20095;-59
2023/09/28 05:33:12;;;;;;;19.42;10.70;;;20.90;63.40;;;;;;5044084;28;20021;-56
2023/09/28 05:35:38;;;;;;;21.95;10.13;;;21.00;63.50;;;;;;5048581;28;20511;-57
2023/09/28 05:38:04;;;;;;;19.10;9.25;;;21.00;63.50;;;;;;5053909;28;20029;-58
2023/09/28 05:40:29;;;;;;;18.30;9.85;;;21.00;63.60;;;;;;5053297;28;20033;-58
2023/09/28 05:42:55;;;;;;;18.38;9.52;;;21.00;63.50;;;;;;5035448;28;20489;-58
2023/09/28 05:45:21;;;;;;;20.05;10.27;;;20.90;63.50;;;;;;5052906;28;20025;-58
2023/09/28 05:47:47;;;;;;;22.52;9.60;;;21.00;63.50;;;;;;5052651;28;20025;-59
2023/09/28 05:50:13;;;;;;;22.92;10.10;;;21.00;63.50;;;;;;5053173;28;20500;-59
2023/09/28 05:52:39;;;;;;;24.33;10.40;;;21.00;63.50;;;;;;5053122;28;20021;-59
2023/09/28 05:55:05;;;;;;;14.82;10.10;;;21.00;63.50;;;;;;5051483;28;20036;-59
2023/09/28 05:57:31;;;;;;;18.63;10.43;;;21.00;63.60;;;;;;5026984;28;20033;-55
2023/09/28 05:59:57;;;;;;;15.80;9.35;;;21.00;63.60;;;;;;5050237;28;20113;-57
2023/09/28 06:02:22;;;;;;;22.88;10.68;;;21.00;64.20;;;;;;5052867;28;20044;-57
2023/09/28 06:04:48;;;;;;;19.08;10.68;;;20.90;63.60;;;;;;5044405;28;20035;-57
2023/09/28 06:07:14;;;;;;;16.88;10.95;;;20.90;63.90;;;;;;5044949;28;20078;-58
2023/09/28 06:09:43;;;;;;;20.75;10.63;;;20.90;63.80;;;;;;5050269;28;20068;-57
2023/09/28 06:12:09;;;;;;;24.80;12.57;;;21.00;63.80;;;;;;5050888;28;20027;-59
2023/09/28 06:14:35;;;;;;;20.70;13.05;;;21.00;64.10;;;;;;5050961;28;20032;-59
2023/09/28 06:17:01;;;;;;;26.58;13.50;;;21.10;64.10;;;;;;5050822;28;20032;-57
2023/09/28 06:19:27;;;;;;;22.10;12.68;;;21.10;64.20;;;;;;5052372;28;20021;-60
2023/09/28 06:21:59;;;;;;;29.52;12.40;;;21.10;64.10;;;;;;5031621;28;20514;-58
2023/09/28 06:24:25;;;;;;;26.60;11.27;;;21.10;65.50;;;;;;5046091;28;20025;-58
2023/09/28 06:26:53;;;;;;;28.33;11.38;;;21.10;64.70;;;;;;5052398;28;20033;-58
2023/09/28 06:29:19;;;;;;;29.40;12.68;;;21.10;64.50;;;;;;5051651;28;20044;-59
2023/09/28 06:31:44;;;;;;;23.67;12.45;;;21.10;66.90;;;;;;5051406;28;20025;-59
2023/09/28 06:34:10;;;;;;;57.38;12.70;;;21.20;67.50;;;;;;5048830;28;20017;-59
2023/09/28 06:36:37;;;;;;;23.67;11.15;;;21.40;68.80;;;;;;5045156;28;20024;-58
2023/09/28 06:39:04;;;;;;;27.88;10.05;;;21.30;65.70;;;;;;5050501;28;20078;-57
2023/09/28 06:41:30;;;;;;;32.28;11.57;;;21.30;65.80;;;;;;5048522;28;20025;-58
2023/09/28 06:43:56;;;;;;;29.10;11.30;;;21.30;66.60;;;;;;5049686;28;20024;-58
2023/09/28 06:46:23;;;;;;;42.80;12.48;;;21.30;67.80;;;;;;5043007;23;20088;-51
2023/09/28 06:48:51;;;;;;;28.38;11.63;;;21.30;68.90;;;;;;5030925;28;20029;-52
2023/09/28 06:51:19;;;;;;;22.90;10.02;;;21.30;68.40;;;;;;5043333;28;20048;-52
2023/09/28 06:53:45;;;;;;;24.58;11.18;;;21.40;67.60;;;;;;5033887;28;20048;-55
2023/09/28 06:56:11;;;;;;;22.02;10.50;;;21.40;67.60;;;;;;5025731;28;20053;-54
2023/09/28 06:58:37;;;;;;;28.63;10.60;;;21.40;67.90;;;;;;5019315;28;20025;-57
2023/09/28 07:01:03;;;;;;;25.60;10.70;;;21.40;67.30;;;;;;5018985;28;20105;-55
2023/09/28 07:03:31;;;;;;;23.23;10.27;;;21.50;67.50;;;;;;5019575;28;20057;-58
2023/09/28 07:05:57;;;;;;;25.90;10.35;;;21.50;67.10;;;;;;5023341;28;20048;-57
2023/09/28 07:08:23;;;;;;;24.42;9.98;;;21.40;67.90;;;;;;5019659;28;20020;-56
2023/09/28 07:10:49;;;;;;;33.88;10.80;;;21.40;68.30;;;;;;5015256;28;20409;-57
2023/09/28 07:13:15;;;;;;;47.10;11.32;;;21.50;69.00;;;;;;5023466;28;20100;-55
2023/09/28 07:15:42;;;;;;;25.50;10.45;;;21.50;69.90;;;;;;5021757;28;20105;-54
2023/09/28 07:18:08;;;;;;;22.88;10.00;;;21.50;69.60;;;;;;5010562;28;20105;-56
2023/09/28 07:20:35;;;;;;;20.63;9.98;;;21.50;69.50;;;;;;5010915;28;20469;-55
2023/09/28 07:23:01;;;;;;;20.98;9.75;;;21.40;70.10;;;;;;5011948;28;20033;-53
2023/09/28 07:25:27;;;;;;;25.42;9.90;;;21.40;69.60;;;;;;5012049;28;20033;-54
2023/09/28 07:27:53;;;;;;;21.65;9.18;;;21.40;69.70;;;;;;5012289;28;20573;-53
2023/09/28 07:30:20;;;;;;;19.88;9.55;;;21.50;70.30;;;;;;5012016;28;20112;-55
2023/09/28 07:32:46;;;;;;;29.60;10.68;;;21.50;70.30;;;;;;5011971;28;20030;-55
2023/09/28 07:35:13;;;;;;;17.38;9.70;;;21.40;69.50;;;;;;5012209;28;20123;-54
2023/09/28 07:37:43;;;;;;;19.40;9.75;;;21.50;69.20;;;;;;5011731;28;20050;-55
2023/09/28 07:40:12;;;;;;;18.92;9.20;;;21.50;68.50;;;;;;5011967;28;20575;-56
2023/09/28 07:42:41;;;;;;;17.20;9.60;;;21.50;68.20;;;;;;5011891;28;20025;-55
2023/09/28 07:45:07;;;;;;;16.77;9.20;;;21.60;68.20;;;;;;5011657;28;20032;-53
2023/09/28 07:47:33;;;;;;;15.95;8.95;;;21.60;68.20;;;;;;5011652;28;20038;-50
2023/09/28 07:50:00;;;;;;;20.13;9.73;;;21.60;68.20;;;;;;5011947;28;20030;-51
2023/09/28 07:52:26;;;;;;;14.45;9.43;;;21.60;68.50;;;;;;5011789;28;20509;-54
2023/09/28 07:54:52;;;;;;;18.63;8.77;;;21.70;68.50;;;;;;5011576;28;20555;-54
2023/09/28 07:57:17;;;;;;;14.82;8.25;;;21.70;68.50;;;;;;5011602;28;20022;-53
2023/09/28 07:59:43;;;;;;;17.63;8.75;;;21.70;68.60;;;;;;5011675;28;20392;-49
2023/09/28 08:02:09;;;;;;;14.60;8.27;;;21.70;68.60;;;;;;5011664;28;20060;-53
2023/09/28 08:04:38;;;;;;;14.50;8.40;;;21.70;68.70;;;;;;5011316;28;20022;-49
2023/09/28 08:07:04;;;;;;;17.17;8.77;;;21.70;68.80;;;;;;5011931;28;20022;-51
2023/09/28 08:09:32;;;;;;;15.77;8.20;;;21.70;68.80;;;;;;5013173;28;20026;-56
2023/09/28 08:11:58;;;;;;;15.82;8.77;;;21.80;68.70;;;;;;5015679;28;20034;-50
2023/09/28 08:14:24;;;;;;;14.13;8.40;;;21.80;68.90;;;;;;5013895;28;20026;-50
2023/09/28 08:16:50;;;;;;;16.80;8.38;;;21.80;69.00;;;;;;5015403;28;20160;-49
2023/09/28 08:19:17;;;;;;;13.98;7.90;;;21.80;69.00;;;;;;5015586;28;20040;-49
2023/09/28 08:21:43;;;;;;;15.27;8.35;;;21.80;69.20;;;;;;5015501;28;20030;-50
2023/09/28 08:24:10;;;;;;;15.00;8.18;;;21.80;69.20;;;;;;5013979;28;20040;-52
2023/09/28 08:26:36;;;;;;;16.42;8.57;;;21.80;69.30;;;;;;5015223;28;20037;-55
2023/09/28 08:29:06;;;;;;;16.30;8.50;;;21.80;69.20;;;;;;5015881;28;20102;-50
2023/09/28 08:31:32;;;;;;;14.82;8.25;;;21.80;69.30;;;;;;5015320;28;20037;-52
2023/09/28 08:33:59;;;;;;;15.07;8.60;;;21.80;69.90;;;;;;5014999;28;20022;-53
2023/09/28 08:36:30;;;;;;;15.23;8.57;;;21.80;69.40;;;;;;5015164;28;20029;-52
2023/09/28 08:38:56;;;;;;;13.57;8.38;;;21.80;69.40;;;;;;5015283;28;20057;-52
2023/09/28 08:41:34;;;;;;;12.80;7.65;;;21.90;69.40;;;;;;5015252;28;20436;-52
2023/09/28 08:44:04;;;;;;;14.77;8.27;;;21.80;69.50;;;;;;5014695;28;20030;-54
2023/09/28 08:46:40;;;;;;;16.10;8.25;;;21.90;69.50;;;;;;5013553;28;20492;-53
2023/09/28 08:49:08;;;;;;;15.00;8.00;;;21.90;69.50;;;;;;5014958;28;20523;-50
2023/09/28 08:51:36;;;;;;;14.57;7.70;;;21.90;69.60;;;;;;5015045;28;20033;-51
2023/09/28 08:54:05;;;;;;;11.45;7.47;;;21.90;69.60;;;;;;5014695;28;20033;-51
2023/09/28 08:56:39;;;;;;;13.52;8.25;;;21.90;69.60;;;;;;5014768;28;20092;-50
2023/09/28 08:59:05;;;;;;;17.83;8.05;;;21.90;69.70;;;;;;5014795;28;20034;-53
2023/09/28 09:01:32;;;;;;;15.93;7.70;;;21.90;69.30;;;;;;5014854;28;20030;-55
2023/09/28 09:03:59;;;;;;;13.68;8.25;;;21.90;69.60;;;;;;5014593;28;20517;-53
2023/09/28 09:06:29;;;;;;;13.20;8.10;;;21.90;69.70;;;;;;5014565;28;20025;-54
2023/09/28 09:09:00;;;;;;;13.68;8.30;;;21.90;69.70;;;;;;5015086;28;20030;-49
2023/09/28 09:11:29;;;;;;;11.05;7.53;;;22.00;69.80;;;;;;5014649;28;20026;-50
2023/09/28 09:13:55;;;;;;;11.43;7.35;;;21.90;69.60;;;;;;5014339;28;20081;-53
2023/09/28 09:16:27;;;;;;;15.93;7.78;;;21.90;69.70;;;;;;5014413;28;20065;-56
2023/09/28 09:18:58;;;;;;;13.90;7.35;;;22.00;69.70;;;;;;5014468;28;20033;-56
2023/09/28 09:21:24;;;;;;;12.82;7.55;;;21.90;69.50;;;;;;5013205;28;20101;-55
2023/09/28 09:24:04;;;;;;;12.90;6.82;;;21.90;69.60;;;;;;5014044;28;20444;-55
2023/09/28 09:26:44;;;;;;;12.05;7.47;;;21.90;69.50;;;;;;5014202;28;20030;-56
2023/09/28 09:29:10;;;;;;;;;;;21.90;69.70;;;;;;5014774;28;20057;-53
2023/09/28 09:31:40;;;;;;;13.45;7.78;;;21.90;69.40;;;;;;5014231;28;19909;-56
2023/09/28 09:34:14;;;;;;;10.93;7.20;;;21.90;69.50;;;;;;5014030;28;20030;-56
2023/09/28 09:36:42;;;;;;;11.98;7.32;;;21.90;69.50;;;;;;5014055;28;20092;-55
2023/09/28 09:39:23;;;;;;;13.07;7.50;;;21.80;69.40;;;;;;5014141;28;20073;-55
2023/09/28 09:41:49;;;;;;;13.18;7.47;;;21.80;69.60;;;;;;5014181;28;20645;-53
2023/09/28 09:44:24;;;;;;;15.85;6.85;;;21.80;69.60;;;;;;5014058;28;20034;-54
2023/09/28 09:46:54;;;;;;;14.30;7.28;;;21.80;69.60;;;;;;5013636;28;20147;-56
2023/09/28 09:49:24;;;;;;;11.77;7.40;;;21.80;69.60;;;;;;5014047;28;20452;-56
2023/09/28 09:51:50;;;;;;;13.48;7.30;;;21.80;69.70;;;;;;5013837;28;20036;-54
2023/09/28 09:54:17;;;;;;;10.30;6.80;;;21.80;69.60;;;;;;5013519;28;20026;-56
2023/09/28 09:56:51;;;;;;;10.80;6.53;;;21.80;69.40;;;;;;5013467;28;20520;-56
2023/09/28 09:59:21;;;;;;;10.05;6.82;;;21.80;69.40;;;;;;5013765;28;20033;-56
2023/09/28 10:01:49;;;;;;;12.48;7.15;;;21.90;69.50;;;;;;5013813;28;20104;-53
2023/09/28 10:04:16;;;;;;;10.70;6.55;;;21.90;69.60;;;;;;5013394;28;20519;-56
2023/09/28 10:06:51;;;;;;;9.70;6.40;;;21.80;69.60;;;;;;5013390;28;20108;-56
2023/09/28 10:09:19;;;;;;;10.82;7.00;;;21.90;69.80;;;;;;5013481;28;20041;-56
2023/09/28 10:11:49;;;;;;;12.18;6.88;;;21.90;69.80;;;;;;5013437;28;20033;-56
2023/09/28 10:14:21;;;;;;;13.00;7.07;;;21.90;69.90;;;;;;5013272;28;20049;-51
2023/09/28 10:16:54;;;;;;;10.68;6.60;;;21.90;70.00;;;;;;5013346;28;20485;-54
2023/09/28 10:19:24;;;;;;;10.63;6.82;;;21.90;70.00;;;;;;5013340;28;20030;-53
2023/09/28 10:21:53;;;;;;;11.10;7.10;;;21.90;70.00;;;;;;5013353;28;20030;-56
2023/09/28 10:24:30;;;;;;;12.00;7.35;;;22.00;70.00;;;;;;5012917;28;20553;-53
2023/09/28 10:26:57;;;;;;;12.32;7.25;;;21.90;70.10;;;;;;5013165;28;20105;-49
2023/09/28 10:29:30;;;;;;;10.32;6.72;;;22.00;69.80;;;;;;5013209;28;20536;-51
2023/09/28 10:31:57;;;;;;;9.45;6.53;;;21.90;69.80;;;;;;5012780;28;20030;-50
2023/09/28 10:34:24;;;;;;;13.15;6.97;;;21.90;70.00;;;;;;5013192;28;20026;-56
2023/09/28 10:37:10;;;;;;;11.20;6.75;;;21.90;69.70;;;;;;5012962;28;20037;-53
2023/09/28 10:39:57;;;;;;;13.57;7.15;;;21.90;69.70;;;;;;5012998;28;20033;-56
2023/09/28 10:42:23;;;;;;;12.73;6.68;;;21.90;69.80;;;;;;5012876;28;20076;-54
2023/09/28 10:44:51;;;;;;;11.52;6.90;;;21.90;69.80;;;;;;5012349;28;20036;-56
2023/09/28 10:47:17;;;;;;;11.10;6.63;;;21.90;69.70;;;;;;5012579;28;20453;-52
2023/09/28 10:49:43;;;;;;;10.43;6.82;;;21.90;69.80;;;;;;5012821;28;20114;-49
2023/09/28 10:52:10;;;;;;;10.88;6.70;;;21.90;69.70;;;;;;5012797;28;20062;-54
2023/09/28 10:54:37;;;;;;;11.60;6.30;;;21.90;69.70;;;;;;5012426;28;20449;-52
2023/09/28 10:57:03;;;;;;;10.20;6.18;;;21.90;69.70;;;;;;5012477;28;20040;-54
2023/09/28 10:59:29;;;;;;;9.88;6.70;;;21.90;69.70;;;;;;5012706;28;20120;-56
2023/09/28 11:01:55;;;;;;;10.63;6.15;;;21.80;69.60;;;;;;5012579;28;20561;-56
2023/09/28 11:04:22;;;;;;;9.15;6.05;;;21.80;69.60;;;;;;5012231;28;20081;-56
2023/09/28 11:06:49;;;;;;;10.90;6.30;;;21.90;69.90;;;;;;5012279;28;20064;-56
2023/09/28 11:09:16;;;;;;;11.23;6.20;;;21.90;69.70;;;;;;5012340;28;20030;-56
2023/09/28 11:11:42;;;;;;;10.57;5.85;;;21.90;69.90;;;;;;5012382;28;20124;-56
2023/09/28 11:14:08;;;;;;;8.05;6.00;;;21.90;69.80;;;;;;5011998;28;20022;-57
2023/09/28 11:16:35;;;;;;;8.85;6.10;;;21.90;69.80;;;;;;5012186;28;20030;-57
2023/09/28 11:19:01;;;;;;;8.80;6.20;;;21.90;69.80;;;;;;5012213;28;20040;-56
2023/09/28 11:21:29;;;;;;;9.02;6.20;;;21.90;70.00;;;;;;5011180;28;20493;-56
2023/09/28 11:23:55;;;;;;;11.75;6.70;;;21.90;69.60;;;;;;5011906;28;20034;-56
2023/09/28 11:26:22;;;;;;;10.57;6.28;;;21.90;69.70;;;;;;5011742;28;20112;-56
2023/09/28 11:28:52;;;;;;;10.75;6.10;;;21.90;69.70;;;;;;5012118;28;20022;-56
2023/09/28 11:31:18;;;;;;;8.73;5.70;;;21.90;69.60;;;;;;5012207;28;20026;-56
2023/09/28 11:33:46;;;;;;;8.57;5.90;;;21.90;69.70;;;;;;5011792;28;20025;-57
2023/09/28 11:36:20;;;;;;;9.65;5.72;;;21.90;69.70;;;;;;5011898;28;20425;-56
2023/09/28 11:38:48;;;;;;;8.43;5.75;;;21.90;69.60;;;;;;5011915;28;20034;-55
2023/09/28 11:41:14;;;;;;;9.30;6.00;;;21.90;70.00;;;;;;5011891;28;20026;-56
2023/09/28 11:43:53;;;;;;;10.35;6.32;;;21.90;69.70;;;;;;5011005;28;20030;-56
2023/09/28 11:46:30;;;;;;;10.93;6.00;;;21.90;69.70;;;;;;5011717;28;20072;-56
2023/09/28 11:49:09;;;;;;;10.50;5.80;;;21.80;69.60;;;;;;5011837;28;20026;-56
2023/09/28 11:51:36;;;;;;;9.93;5.55;;;21.90;69.70;;;;;;5011951;28;20362;-56
2023/09/28 11:54:12;;;;;;;8.32;5.57;;;21.80;69.60;;;;;;5011561;28;20026;-56
2023/09/28 11:56:40;;;;;;;8.18;5.80;;;21.90;69.90;;;;;;5011764;28;20041;-56
2023/09/28 11:59:07;;;;;;;9.00;5.75;;;21.90;69.60;;;;;;5011886;28;20444;-55
2023/09/28 12:01:32;;;;;;;9.77;5.70;;;21.80;69.60;;;;;;5011875;28;20105;-52
2023/09/28 12:03:59;;;;;;;9.63;5.82;;;21.80;69.60;;;;;;5011357;28;20513;-54
2023/09/28 12:06:26;;;;;;;8.48;5.13;;;21.90;69.70;;;;;;5011579;28;20540;-48
2023/09/28 12:08:52;;;;;;;9.80;5.90;;;21.90;69.70;;;;;;5011637;28;20025;-52
2023/09/28 12:11:18;;;;;;;9.30;5.50;;;21.80;69.80;;;;;;5011666;28;20026;-49
2023/09/28 12:13:46;;;;;;;9.52;5.63;;;21.80;70.20;;;;;;5011379;28;20026;-51
2023/09/28 12:16:12;;;;;;;8.93;5.68;;;21.80;70.30;;;;;;5011492;28;20030;-53
2023/09/28 12:18:38;;;;;;;8.90;5.55;;;21.80;69.70;;;;;;5011628;28;20053;-49
2023/09/28 12:21:05;;;;;;;8.00;5.85;;;21.80;69.60;;;;;;5011674;28;20489;-49
2023/09/28 12:23:31;;;;;;;10.55;5.30;;;21.80;69.70;;;;;;5011345;28;20084;-51
2023/09/28 12:25:57;;;;;;;7.60;5.10;;;21.80;69.70;;;;;;5011397;28;20030;-50
2023/09/28 12:28:23;;;;;;;10.38;5.75;;;21.80;69.70;;;;;;5011525;28;20026;-50
2023/09/28 12:30:49;;;;;;;8.95;5.47;;;21.80;69.70;;;;;;5011409;28;20123;-50
2023/09/28 12:33:15;;;;;;;8.98;5.45;;;21.80;69.70;;;;;;5011209;28;20104;-56
2023/09/28 12:35:42;;;;;;;9.07;5.38;;;21.80;69.60;;;;;;5011400;28;20113;-55
2023/09/28 12:38:08;;;;;;;8.35;5.57;;;21.80;69.60;;;;;;5011369;28;20030;-49
2023/09/28 12:40:34;;;;;;;9.63;5.63;;;21.80;69.70;;;;;;5011523;28;20401;-51